createdAt,value
2019-01-31T00:00:48.741Z,0.00
2019-01-31T00:01:48.914Z,0.00
2019-01-31T00:02:49.086Z,0.00
2019-01-31T00:03:49.253Z,0.00
2019-01-31T00:04:49.433Z,0.00
2019-01-31T00:05:49.594Z,0.00
2019-01-31T00:06:49.775Z,0.00
2019-01-31T00:07:49.927Z,0.00
2019-01-31T00:08:50.098Z,0.00
2019-01-31T00:09:50.276Z,0.00
2019-01-31T00:10:50.437Z,0.00
2019-01-31T00:11:50.610Z,0.00
2019-01-31T00:12:50.775Z,0.00
2019-01-31T00:13:50.939Z,0.00
2019-01-31T00:14:51.098Z,0.00
2019-01-31T00:15:51.267Z,0.00
2019-01-31T00:16:51.439Z,0.00
2019-01-31T00:17:51.609Z,0.00
2019-01-31T00:18:51.778Z,0.00
2019-01-31T00:19:51.948Z,0.00
2019-01-31T00:20:52.116Z,0.00
2019-01-31T00:21:52.297Z,0.00
2019-01-31T00:22:52.457Z,0.00
2019-01-31T00:23:52.633Z,0.00
2019-01-31T00:24:52.796Z,0.00
2019-01-31T00:25:52.965Z,0.00
2019-01-31T00:26:53.134Z,0.00
2019-01-31T00:27:53.311Z,0.00
2019-01-31T00:28:53.578Z,0.00
2019-01-31T00:29:53.644Z,0.00
2019-01-31T00:30:53.812Z,0.00
2019-01-31T00:31:53.984Z,0.00
2019-01-31T00:32:54.153Z,0.00
2019-01-31T00:33:54.322Z,0.00
2019-01-31T00:34:54.491Z,0.00
2019-01-31T00:35:54.661Z,0.00
2019-01-31T00:36:54.835Z,0.00
2019-01-31T00:37:55.001Z,0.00
2019-01-31T00:38:56.955Z,0.00
2019-01-31T00:39:55.341Z,0.00
2019-01-31T00:40:55.512Z,0.00
2019-01-31T00:41:55.684Z,0.00
2019-01-31T00:42:55.848Z,0.00
2019-01-31T00:43:56.022Z,0.00
2019-01-31T00:44:56.192Z,0.00
2019-01-31T00:45:56.361Z,0.00
2019-01-31T00:46:56.532Z,0.00
2019-01-31T00:47:56.725Z,0.00
2019-01-31T00:48:56.869Z,0.00
2019-01-31T00:49:57.053Z,0.00
2019-01-31T00:50:57.195Z,0.00
2019-01-31T00:51:57.372Z,0.00
2019-01-31T00:52:57.534Z,0.00
2019-01-31T00:53:57.707Z,0.00
2019-01-31T00:54:57.874Z,0.00
2019-01-31T00:55:58.052Z,0.00
2019-01-31T00:56:58.219Z,0.00
2019-01-31T00:57:58.388Z,0.00
2019-01-31T00:58:58.569Z,0.00
2019-01-31T00:59:58.724Z,0.00
2019-01-31T01:00:58.902Z,0.00
2019-01-31T01:01:59.071Z,0.00
2019-01-31T01:02:59.256Z,0.00
2019-01-31T01:03:59.431Z,0.00
2019-01-31T01:04:59.594Z,0.00
2019-01-31T01:06:59.925Z,0.00
2019-01-31T01:09:07.624Z,0.00
2019-01-31T01:10:00.434Z,0.00
2019-01-31T01:11:00.596Z,0.00
2019-01-31T01:12:00.764Z,0.00
2019-01-31T01:13:00.935Z,0.00
2019-01-31T01:14:01.103Z,0.00
2019-01-31T01:15:01.285Z,0.00
2019-01-31T01:16:01.441Z,0.00
2019-01-31T01:17:01.610Z,0.00
2019-01-31T01:18:01.782Z,0.00
2019-01-31T01:19:01.950Z,0.00
2019-01-31T01:20:02.122Z,0.00
2019-01-31T01:21:02.291Z,0.00
2019-01-31T01:22:02.459Z,0.00
2019-01-31T01:23:02.633Z,0.00
2019-01-31T01:24:02.813Z,0.00
2019-01-31T01:26:03.136Z,0.00
2019-01-31T01:27:03.306Z,0.00
2019-01-31T01:28:03.473Z,0.00
2019-01-31T01:29:03.643Z,0.00
2019-01-31T01:30:03.811Z,0.00
2019-01-31T01:31:03.990Z,0.00
2019-01-31T01:32:04.148Z,0.00
2019-01-31T01:33:04.334Z,0.00
2019-01-31T01:34:04.485Z,0.00
2019-01-31T01:35:04.657Z,0.00
2019-01-31T01:36:04.830Z,0.00
2019-01-31T01:37:04.999Z,0.00
2019-01-31T01:38:05.167Z,0.00
2019-01-31T01:39:05.335Z,0.00
2019-01-31T01:40:05.505Z,0.00
2019-01-31T01:41:05.675Z,0.00
2019-01-31T01:42:05.847Z,0.00
2019-01-31T01:43:06.021Z,0.00
2019-01-31T01:44:06.191Z,0.00
2019-01-31T01:45:06.362Z,0.00
2019-01-31T01:46:06.523Z,0.00
2019-01-31T01:47:06.697Z,0.00
2019-01-31T01:48:06.868Z,0.00
2019-01-31T01:49:07.036Z,0.00
2019-01-31T01:50:07.204Z,0.00
2019-01-31T01:51:07.376Z,0.00
2019-01-31T01:52:07.544Z,0.00
2019-01-31T01:53:07.715Z,0.00
2019-01-31T01:54:07.886Z,0.00
2019-01-31T01:55:08.055Z,0.00
2019-01-31T01:56:08.233Z,0.00
2019-01-31T01:57:08.387Z,0.00
2019-01-31T01:58:08.564Z,0.00
2019-01-31T01:59:08.730Z,0.00
2019-01-31T02:00:08.896Z,0.00
2019-01-31T02:01:09.073Z,0.00
2019-01-31T02:02:09.249Z,0.00
2019-01-31T02:03:09.402Z,0.00
2019-01-31T02:04:09.579Z,0.00
2019-01-31T02:05:09.750Z,0.00
2019-01-31T02:06:09.919Z,0.00
2019-01-31T02:07:10.088Z,0.00
2019-01-31T02:08:10.264Z,0.00
2019-01-31T02:09:10.423Z,0.00
2019-01-31T02:10:10.598Z,0.00
2019-01-31T02:11:10.758Z,0.00
2019-01-31T02:12:10.927Z,0.00
2019-01-31T02:13:11.106Z,0.00
2019-01-31T02:14:11.267Z,0.00
2019-01-31T02:15:11.438Z,0.00
2019-01-31T02:16:11.611Z,0.00
2019-01-31T02:17:11.782Z,0.00
2019-01-31T02:18:11.954Z,0.00
2019-01-31T02:19:12.136Z,0.00
2019-01-31T02:20:12.285Z,0.00
2019-01-31T02:21:12.456Z,0.00
2019-01-31T02:22:12.625Z,0.00
2019-01-31T02:23:12.790Z,0.00
2019-01-31T02:24:12.964Z,0.00
2019-01-31T02:25:13.137Z,0.00
2019-01-31T02:26:13.307Z,0.00
2019-01-31T02:27:13.477Z,0.00
2019-01-31T02:28:13.648Z,0.00
2019-01-31T02:29:13.817Z,0.00
2019-01-31T02:30:13.989Z,0.00
2019-01-31T02:31:14.158Z,0.00
2019-01-31T02:32:14.331Z,0.00
2019-01-31T02:33:14.501Z,0.00
2019-01-31T02:34:14.672Z,0.00
2019-01-31T02:35:14.848Z,0.00
2019-01-31T02:36:15.003Z,0.00
2019-01-31T02:37:15.175Z,0.00
2019-01-31T02:38:15.347Z,0.00
2019-01-31T02:39:15.524Z,0.00
2019-01-31T02:40:15.692Z,0.00
2019-01-31T02:41:15.877Z,0.00
2019-01-31T02:42:16.037Z,0.00
2019-01-31T02:43:16.206Z,0.00
2019-01-31T02:44:16.375Z,0.00
2019-01-31T02:45:16.552Z,0.00
2019-01-31T02:46:16.719Z,0.00
2019-01-31T02:47:16.892Z,0.00
2019-01-31T02:48:17.059Z,0.00
2019-01-31T02:49:17.210Z,0.00
2019-01-31T02:50:17.370Z,0.00
2019-01-31T02:51:17.539Z,0.00
2019-01-31T02:52:17.711Z,0.00
2019-01-31T02:53:17.881Z,0.00
2019-01-31T02:54:18.056Z,0.00
2019-01-31T02:55:18.226Z,0.00
2019-01-31T02:56:18.378Z,0.00
2019-01-31T02:57:18.558Z,0.00
2019-01-31T02:58:18.725Z,0.00
2019-01-31T02:59:18.896Z,0.00
2019-01-31T03:00:19.065Z,0.00
2019-01-31T03:01:19.234Z,0.00
2019-01-31T03:02:19.407Z,0.00
2019-01-31T03:03:19.570Z,0.00
2019-01-31T03:04:19.743Z,0.00
2019-01-31T03:05:19.909Z,0.00
2019-01-31T03:06:20.075Z,0.00
2019-01-31T03:07:20.247Z,0.00
2019-01-31T03:08:20.417Z,0.00
2019-01-31T03:09:20.586Z,0.00
2019-01-31T03:10:20.759Z,0.00
2019-01-31T03:11:20.923Z,0.00
2019-01-31T03:12:21.107Z,0.00
2019-01-31T03:13:21.274Z,0.00
2019-01-31T03:14:21.461Z,0.00
2019-01-31T03:15:21.616Z,0.00
2019-01-31T03:16:21.795Z,0.00
2019-01-31T03:17:21.953Z,0.00
2019-01-31T03:18:22.121Z,0.00
2019-01-31T03:19:22.405Z,0.00
2019-01-31T03:20:22.459Z,0.00
2019-01-31T03:21:22.634Z,0.00
2019-01-31T03:22:22.782Z,0.00
2019-01-31T03:23:22.950Z,0.00
2019-01-31T03:24:23.130Z,0.00
2019-01-31T03:25:23.293Z,0.00
2019-01-31T03:26:23.470Z,0.00
2019-01-31T03:27:23.633Z,0.00
2019-01-31T03:28:23.800Z,0.00
2019-01-31T03:29:23.970Z,0.00
2019-01-31T03:30:24.976Z,0.00
2019-01-31T03:31:24.314Z,0.00
2019-01-31T03:32:24.478Z,0.00
2019-01-31T03:33:24.647Z,0.00
2019-01-31T03:34:24.823Z,0.00
2019-01-31T03:35:24.991Z,0.00
2019-01-31T03:36:25.152Z,0.00
2019-01-31T03:37:25.314Z,0.00
2019-01-31T03:38:25.481Z,0.00
2019-01-31T03:39:25.659Z,0.00
2019-01-31T03:40:25.842Z,0.00
2019-01-31T03:41:25.999Z,0.00
2019-01-31T03:42:26.163Z,0.00
2019-01-31T03:43:26.335Z,0.00
2019-01-31T03:44:26.510Z,0.00
2019-01-31T03:45:26.676Z,0.00
2019-01-31T03:46:26.846Z,0.00
2019-01-31T03:47:27.016Z,0.00
2019-01-31T03:48:27.187Z,0.00
2019-01-31T03:49:27.357Z,0.00
2019-01-31T03:50:27.527Z,0.00
2019-01-31T03:51:27.698Z,0.00
2019-01-31T03:52:27.862Z,0.00
2019-01-31T03:53:28.047Z,0.00
2019-01-31T03:54:28.210Z,0.00
2019-01-31T03:55:28.381Z,0.00
2019-01-31T03:56:28.548Z,0.00
2019-01-31T03:57:28.718Z,0.00
2019-01-31T03:58:28.902Z,0.00
2019-01-31T03:59:29.068Z,0.00
2019-01-31T04:00:29.242Z,0.00
2019-01-31T04:01:29.404Z,0.00
2019-01-31T04:02:29.574Z,0.00
2019-01-31T04:03:32.514Z,0.00
2019-01-31T04:04:29.913Z,0.00
2019-01-31T04:05:30.084Z,0.00
2019-01-31T04:06:30.258Z,0.00
2019-01-31T04:07:30.430Z,0.00
2019-01-31T04:08:30.748Z,0.00
2019-01-31T04:09:30.763Z,0.00
2019-01-31T04:10:30.936Z,0.00
2019-01-31T04:11:31.105Z,0.00
2019-01-31T04:12:31.284Z,0.00
2019-01-31T04:13:31.436Z,0.00
2019-01-31T04:14:31.617Z,0.00
2019-01-31T04:15:31.783Z,0.00
2019-01-31T04:16:31.953Z,0.00
2019-01-31T04:17:32.122Z,0.00
2019-01-31T04:18:32.289Z,0.00
2019-01-31T04:19:32.451Z,0.00
2019-01-31T04:20:32.624Z,0.00
2019-01-31T04:21:32.787Z,0.00
2019-01-31T04:22:32.959Z,0.00
2019-01-31T04:23:33.130Z,0.00
2019-01-31T04:24:33.317Z,0.00
2019-01-31T04:25:33.471Z,0.00
2019-01-31T04:26:33.630Z,0.00
2019-01-31T04:27:33.801Z,0.00
2019-01-31T04:28:33.961Z,0.00
2019-01-31T04:29:34.126Z,0.00
2019-01-31T04:30:34.287Z,0.00
2019-01-31T04:31:34.448Z,0.00
2019-01-31T04:32:34.618Z,0.00
2019-01-31T04:33:35.670Z,0.00
2019-01-31T04:34:34.942Z,0.00
2019-01-31T04:35:35.108Z,0.00
2019-01-31T04:36:35.281Z,0.00
2019-01-31T04:37:35.441Z,0.00
2019-01-31T04:38:35.613Z,0.00
2019-01-31T04:39:35.780Z,0.00
2019-01-31T04:40:35.948Z,0.00
2019-01-31T04:41:36.119Z,0.00
2019-01-31T04:42:36.287Z,0.00
2019-01-31T04:43:36.455Z,0.00
2019-01-31T04:44:36.622Z,0.00
2019-01-31T04:45:36.804Z,0.00
2019-01-31T04:46:36.996Z,0.00
2019-01-31T04:47:37.158Z,0.00
2019-01-31T04:48:37.312Z,0.00
2019-01-31T04:49:37.476Z,0.00
2019-01-31T04:50:37.642Z,0.00
2019-01-31T04:51:37.811Z,0.00
2019-01-31T04:52:37.980Z,0.00
2019-01-31T04:53:38.154Z,0.00
2019-01-31T04:54:38.316Z,0.00
2019-01-31T04:55:38.483Z,0.00
2019-01-31T04:56:38.659Z,0.00
2019-01-31T04:57:38.818Z,0.00
2019-01-31T04:58:38.990Z,0.00
2019-01-31T04:59:39.159Z,0.00
2019-01-31T05:00:39.326Z,0.00
2019-01-31T05:01:39.506Z,0.00
2019-01-31T05:02:39.676Z,0.00
2019-01-31T05:03:39.843Z,0.00
2019-01-31T05:04:40.025Z,0.00
2019-01-31T05:05:40.186Z,0.00
2019-01-31T05:06:40.351Z,0.00
2019-01-31T05:07:40.519Z,0.00
2019-01-31T05:08:40.685Z,0.00
2019-01-31T05:09:40.858Z,0.00
2019-01-31T05:10:43.316Z,0.00
2019-01-31T05:11:41.197Z,0.00
2019-01-31T05:12:41.357Z,0.00
2019-01-31T05:13:41.531Z,0.00
2019-01-31T05:14:41.698Z,0.00
2019-01-31T05:15:42.003Z,0.00
2019-01-31T05:16:42.033Z,0.00
2019-01-31T05:17:42.206Z,0.00
2019-01-31T05:18:42.374Z,0.00
2019-01-31T05:19:42.563Z,0.00
2019-01-31T05:20:42.716Z,0.00
2019-01-31T05:21:42.882Z,0.00
2019-01-31T05:22:43.055Z,0.00
2019-01-31T05:23:43.227Z,0.00
2019-01-31T05:24:43.396Z,0.00
2019-01-31T05:25:43.560Z,0.00
2019-01-31T05:26:43.729Z,0.00
2019-01-31T05:27:43.904Z,0.00
2019-01-31T05:28:44.070Z,0.00
2019-01-31T05:29:44.241Z,0.00
2019-01-31T05:30:44.406Z,0.00
2019-01-31T05:31:44.575Z,0.00
2019-01-31T05:32:44.759Z,0.00
2019-01-31T05:33:44.911Z,0.00
2019-01-31T05:34:45.076Z,0.00
2019-01-31T05:35:45.243Z,0.00
2019-01-31T05:36:45.417Z,0.00
2019-01-31T05:37:45.587Z,0.00
2019-01-31T05:38:45.745Z,0.00
2019-01-31T05:39:45.916Z,0.00
2019-01-31T05:40:55.232Z,0.00
2019-01-31T05:41:46.254Z,0.00
2019-01-31T05:42:46.431Z,0.00
2019-01-31T05:43:46.591Z,0.00
2019-01-31T05:44:46.758Z,0.00
2019-01-31T05:45:46.945Z,0.00
2019-01-31T05:46:47.103Z,0.00
2019-01-31T05:47:47.274Z,0.00
2019-01-31T05:48:47.442Z,0.00
2019-01-31T05:49:47.612Z,0.00
2019-01-31T05:50:47.782Z,0.00
2019-01-31T05:51:47.951Z,0.00
2019-01-31T05:52:48.120Z,0.00
2019-01-31T05:53:48.292Z,0.00
2019-01-31T05:54:48.467Z,0.00
2019-01-31T05:55:48.613Z,0.00
2019-01-31T05:56:48.794Z,0.00
2019-01-31T05:57:48.960Z,0.00
2019-01-31T05:58:49.129Z,0.00
2019-01-31T05:59:49.299Z,0.00
2019-01-31T06:00:49.473Z,0.00
2019-01-31T06:01:49.644Z,0.00
2019-01-31T06:02:49.814Z,0.00
2019-01-31T06:03:49.979Z,0.00
2019-01-31T06:04:50.152Z,0.00
2019-01-31T06:05:50.385Z,0.00
2019-01-31T06:06:50.489Z,0.00
2019-01-31T06:07:50.656Z,0.00
2019-01-31T06:08:50.826Z,0.00
2019-01-31T06:09:50.994Z,0.00
2019-01-31T06:10:51.152Z,0.00
2019-01-31T06:11:51.355Z,0.00
2019-01-31T06:12:51.486Z,0.00
2019-01-31T06:13:51.649Z,0.00
2019-01-31T06:14:51.828Z,0.00
2019-01-31T06:15:52.005Z,0.00
2019-01-31T06:16:52.166Z,0.00
2019-01-31T06:17:52.333Z,0.00
2019-01-31T06:18:52.506Z,0.00
2019-01-31T06:19:52.664Z,0.00
2019-01-31T06:20:52.828Z,0.00
2019-01-31T06:21:52.996Z,0.00
2019-01-31T06:22:53.168Z,0.00
2019-01-31T06:23:53.335Z,0.00
2019-01-31T06:24:53.505Z,0.00
2019-01-31T06:25:53.676Z,0.00
2019-01-31T06:26:53.843Z,0.00
2019-01-31T06:27:54.014Z,0.00
2019-01-31T06:28:54.175Z,0.00
2019-01-31T06:29:54.341Z,0.00
2019-01-31T06:30:54.515Z,0.00
2019-01-31T06:31:54.685Z,0.00
2019-01-31T06:32:54.857Z,0.00
2019-01-31T06:33:55.029Z,0.00
2019-01-31T06:34:55.190Z,0.00
2019-01-31T06:35:55.358Z,0.00
2019-01-31T06:36:55.524Z,0.00
2019-01-31T06:37:55.690Z,0.00
2019-01-31T06:38:55.859Z,0.00
2019-01-31T06:39:56.026Z,0.00
2019-01-31T06:40:56.199Z,0.00
2019-01-31T06:41:56.366Z,0.00
2019-01-31T06:42:56.582Z,0.00
2019-01-31T06:43:56.711Z,0.00
2019-01-31T06:44:56.875Z,0.00
2019-01-31T06:45:57.042Z,5.63
2019-01-31T06:46:57.208Z,5.63
2019-01-31T06:47:57.376Z,5.63
2019-01-31T06:48:57.547Z,5.63
2019-01-31T06:49:57.717Z,5.63
2019-01-31T06:50:57.891Z,5.63
2019-01-31T06:51:58.049Z,5.63
2019-01-31T06:52:58.320Z,11.25
2019-01-31T06:53:58.408Z,11.25
2019-01-31T06:54:58.552Z,11.25
2019-01-31T06:55:58.720Z,11.25
2019-01-31T06:56:58.890Z,16.88
2019-01-31T06:57:59.057Z,16.88
2019-01-31T06:58:59.225Z,16.88
2019-01-31T06:59:59.394Z,16.88
2019-01-31T07:00:59.568Z,22.50
2019-01-31T07:01:59.729Z,22.50
2019-01-31T07:02:59.899Z,22.50
2019-01-31T07:04:00.068Z,28.13
2019-01-31T07:05:00.327Z,28.13
2019-01-31T07:06:00.439Z,28.13
2019-01-31T07:07:00.569Z,33.75
2019-01-31T07:08:00.747Z,33.75
2019-01-31T07:09:00.902Z,39.38
2019-01-31T07:10:01.069Z,39.38
2019-01-31T07:11:01.240Z,39.38
2019-01-31T07:12:01.400Z,45.00
2019-01-31T07:13:01.578Z,50.63
2019-01-31T07:14:01.746Z,50.63
2019-01-31T07:15:01.911Z,56.25
2019-01-31T07:16:02.096Z,56.25
2019-01-31T07:17:02.245Z,56.25
2019-01-31T07:18:02.414Z,61.88
2019-01-31T07:19:02.584Z,61.88
2019-01-31T07:20:02.751Z,67.50
2019-01-31T07:21:02.925Z,67.50
2019-01-31T07:22:03.105Z,73.13
2019-01-31T07:23:03.263Z,73.13
2019-01-31T07:24:03.428Z,78.75
2019-01-31T07:25:03.586Z,78.75
2019-01-31T07:26:03.756Z,84.38
2019-01-31T07:27:03.921Z,84.38
2019-01-31T07:28:04.095Z,90.00
2019-01-31T07:29:04.267Z,90.00
2019-01-31T07:30:04.428Z,95.63
2019-01-31T07:31:04.599Z,95.63
2019-01-31T07:32:04.771Z,101.25
2019-01-31T07:33:04.933Z,106.88
2019-01-31T07:34:05.105Z,106.88
2019-01-31T07:35:05.278Z,112.50
2019-01-31T07:36:05.441Z,112.50
2019-01-31T07:37:05.624Z,118.13
2019-01-31T07:38:05.805Z,118.13
2019-01-31T07:39:05.938Z,123.75
2019-01-31T07:40:06.105Z,123.75
2019-01-31T07:41:06.273Z,129.38
2019-01-31T07:42:06.434Z,129.38
2019-01-31T07:43:06.635Z,135.00
2019-01-31T07:44:06.774Z,135.00
2019-01-31T07:45:06.944Z,140.63
2019-01-31T07:46:07.111Z,140.63
2019-01-31T07:47:07.271Z,140.63
2019-01-31T07:48:07.442Z,146.25
2019-01-31T07:49:07.604Z,146.25
2019-01-31T07:50:07.789Z,146.25
2019-01-31T07:51:07.946Z,151.88
2019-01-31T07:52:08.110Z,146.25
2019-01-31T07:53:08.286Z,151.88
2019-01-31T07:54:08.448Z,157.50
2019-01-31T07:55:08.621Z,157.50
2019-01-31T07:56:08.796Z,151.88
2019-01-31T07:57:08.965Z,157.50
2019-01-31T07:58:09.121Z,157.50
2019-01-31T07:59:09.288Z,163.13
2019-01-31T08:00:09.457Z,163.13
2019-01-31T08:01:09.646Z,163.13
2019-01-31T08:02:09.813Z,163.13
2019-01-31T08:03:09.982Z,168.75
2019-01-31T08:04:10.151Z,168.75
2019-01-31T08:05:10.321Z,168.75
2019-01-31T08:06:10.498Z,168.75
2019-01-31T08:07:10.661Z,168.75
2019-01-31T08:08:10.824Z,174.38
2019-01-31T08:09:10.998Z,174.38
2019-01-31T08:10:11.167Z,174.38
2019-01-31T08:11:11.339Z,174.38
2019-01-31T08:12:11.552Z,174.38
2019-01-31T08:13:11.741Z,180.00
2019-01-31T08:14:11.913Z,174.38
2019-01-31T08:15:12.081Z,180.00
2019-01-31T08:16:12.251Z,180.00
2019-01-31T08:17:12.429Z,180.00
2019-01-31T08:18:12.593Z,180.00
2019-01-31T08:19:12.754Z,185.63
2019-01-31T08:20:12.926Z,185.63
2019-01-31T08:21:13.096Z,180.00
2019-01-31T08:22:13.264Z,185.63
2019-01-31T08:23:13.430Z,185.63
2019-01-31T08:24:13.601Z,191.25
2019-01-31T08:25:13.772Z,185.63
2019-01-31T08:26:13.941Z,185.63
2019-01-31T08:27:14.111Z,191.25
2019-01-31T08:28:14.281Z,191.25
2019-01-31T08:29:14.449Z,191.25
2019-01-31T08:30:14.635Z,191.25
2019-01-31T08:31:14.779Z,191.25
2019-01-31T08:32:14.941Z,196.88
2019-01-31T08:33:15.118Z,196.88
2019-01-31T08:34:15.293Z,196.88
2019-01-31T08:35:15.462Z,196.88
2019-01-31T08:36:15.623Z,202.50
2019-01-31T08:37:15.794Z,202.50
2019-01-31T08:38:15.959Z,208.13
2019-01-31T08:39:16.124Z,208.13
2019-01-31T08:40:16.294Z,213.75
2019-01-31T08:41:16.462Z,213.75
2019-01-31T08:42:16.634Z,213.75
2019-01-31T08:43:16.808Z,213.75
2019-01-31T08:44:16.976Z,213.75
2019-01-31T08:45:17.143Z,213.75
2019-01-31T08:46:17.310Z,213.75
2019-01-31T08:47:17.483Z,213.75
2019-01-31T08:48:17.647Z,219.38
2019-01-31T08:49:17.838Z,219.38
2019-01-31T08:50:17.997Z,219.38
2019-01-31T08:51:18.166Z,225.00
2019-01-31T08:52:18.323Z,225.00
2019-01-31T08:53:18.473Z,225.00
2019-01-31T08:54:18.660Z,225.00
2019-01-31T08:55:18.879Z,230.63
2019-01-31T08:56:19.039Z,230.63
2019-01-31T08:57:19.227Z,230.63
2019-01-31T08:58:19.369Z,225.00
2019-01-31T08:59:19.560Z,225.00
2019-01-31T09:00:19.733Z,225.00
2019-01-31T09:01:19.900Z,225.00
2019-01-31T09:02:20.045Z,230.63
2019-01-31T09:03:20.229Z,230.63
2019-01-31T09:04:20.399Z,230.63
2019-01-31T09:05:20.571Z,230.63
2019-01-31T09:06:20.741Z,236.25
2019-01-31T09:07:20.919Z,236.25
2019-01-31T09:08:21.078Z,236.25
2019-01-31T09:09:21.247Z,236.25
2019-01-31T09:10:21.417Z,236.25
2019-01-31T09:11:21.588Z,241.88
2019-01-31T09:12:21.753Z,241.88
2019-01-31T09:13:21.925Z,241.88
2019-01-31T09:14:22.102Z,241.88
2019-01-31T09:15:22.269Z,247.50
2019-01-31T09:16:22.436Z,247.50
2019-01-31T09:17:22.632Z,247.50
2019-01-31T09:18:22.776Z,253.13
2019-01-31T09:19:22.940Z,253.13
2019-01-31T09:20:23.116Z,253.13
2019-01-31T09:21:23.283Z,253.13
2019-01-31T09:22:23.460Z,253.13
2019-01-31T09:23:23.608Z,253.13
2019-01-31T09:24:23.781Z,253.13
2019-01-31T09:25:23.955Z,258.75
2019-01-31T09:26:24.127Z,258.75
2019-01-31T09:27:24.303Z,264.38
2019-01-31T09:28:24.468Z,264.38
2019-01-31T09:29:24.632Z,270.00
2019-01-31T09:30:24.803Z,270.00
2019-01-31T09:31:24.981Z,275.63
2019-01-31T09:32:25.142Z,281.25
2019-01-31T09:33:25.324Z,286.88
2019-01-31T09:34:25.519Z,298.13
2019-01-31T09:35:25.651Z,315.00
2019-01-31T09:36:25.824Z,337.50
2019-01-31T09:37:26.000Z,348.75
2019-01-31T09:38:26.164Z,365.63
2019-01-31T09:39:26.345Z,382.50
2019-01-31T09:40:26.522Z,399.38
2019-01-31T09:41:26.700Z,410.63
2019-01-31T09:42:26.995Z,421.88
2019-01-31T09:43:27.082Z,433.13
2019-01-31T09:44:27.252Z,444.38
2019-01-31T09:45:27.433Z,450.00
2019-01-31T09:46:27.599Z,455.63
2019-01-31T09:47:27.779Z,461.25
2019-01-31T09:48:27.952Z,466.88
2019-01-31T09:49:28.115Z,466.88
2019-01-31T09:50:28.347Z,472.50
2019-01-31T09:51:28.461Z,478.13
2019-01-31T09:52:28.635Z,483.75
2019-01-31T09:53:28.808Z,489.38
2019-01-31T09:54:28.985Z,489.38
2019-01-31T09:56:29.323Z,483.75
2019-01-31T09:57:29.496Z,489.38
2019-01-31T09:58:29.681Z,466.88
2019-01-31T09:59:29.852Z,455.63
2019-01-31T10:00:30.029Z,421.88
2019-01-31T10:01:30.208Z,388.13
2019-01-31T10:02:30.368Z,365.63
2019-01-31T10:03:30.546Z,348.75
2019-01-31T10:04:30.718Z,343.13
2019-01-31T10:05:30.895Z,298.13
2019-01-31T10:06:31.057Z,337.50
2019-01-31T10:07:31.238Z,365.63
2019-01-31T10:08:31.400Z,410.63
2019-01-31T10:09:31.586Z,236.25
2019-01-31T10:10:31.841Z,185.63
2019-01-31T10:12:38.381Z,191.25
2019-01-31T10:13:32.352Z,196.88
2019-01-31T10:14:32.469Z,208.13
2019-01-31T10:15:32.670Z,225.00
2019-01-31T10:16:32.801Z,225.00
2019-01-31T10:17:33.011Z,213.75
2019-01-31T10:18:33.155Z,213.75
2019-01-31T10:19:33.333Z,219.38
2019-01-31T10:20:33.478Z,230.63
2019-01-31T10:21:33.661Z,241.88
2019-01-31T10:22:33.855Z,247.50
2019-01-31T10:23:34.052Z,264.38
2019-01-31T10:24:34.166Z,247.50
2019-01-31T10:25:35.867Z,281.25
2019-01-31T10:26:34.513Z,281.25
2019-01-31T10:27:34.682Z,427.50
2019-01-31T10:28:34.870Z,556.88
2019-01-31T10:29:35.027Z,433.13
2019-01-31T10:30:35.195Z,500.63
2019-01-31T10:31:35.364Z,337.50
2019-01-31T10:32:35.536Z,315.00
2019-01-31T10:33:35.712Z,315.00
2019-01-31T10:34:35.884Z,326.25
2019-01-31T10:35:36.055Z,309.38
2019-01-31T10:36:36.230Z,303.75
2019-01-31T10:37:36.401Z,315.00
2019-01-31T10:38:36.575Z,298.13
2019-01-31T10:39:36.748Z,298.13
2019-01-31T10:40:36.914Z,292.50
2019-01-31T10:41:37.091Z,292.50
2019-01-31T10:42:37.368Z,286.88
2019-01-31T10:43:37.441Z,281.25
2019-01-31T10:44:37.607Z,275.63
2019-01-31T10:45:37.795Z,270.00
2019-01-31T10:46:37.960Z,264.38
2019-01-31T10:47:38.131Z,264.38
2019-01-31T10:48:38.298Z,264.38
2019-01-31T10:49:38.482Z,270.00
2019-01-31T10:50:38.639Z,281.25
2019-01-31T10:51:38.821Z,286.88
2019-01-31T10:52:38.971Z,286.88
2019-01-31T10:53:39.151Z,292.50
2019-01-31T10:54:39.344Z,286.88
2019-01-31T10:55:39.537Z,286.88
2019-01-31T10:56:39.688Z,286.88
2019-01-31T10:57:39.902Z,281.25
2019-01-31T10:58:40.054Z,270.00
2019-01-31T10:59:40.218Z,264.38
2019-01-31T11:00:40.388Z,258.75
2019-01-31T11:01:40.560Z,253.13
2019-01-31T11:02:40.756Z,253.13
2019-01-31T11:03:40.911Z,247.50
2019-01-31T11:04:41.108Z,241.88
2019-01-31T11:05:41.251Z,236.25
2019-01-31T11:06:41.417Z,230.63
2019-01-31T11:07:41.578Z,225.00
2019-01-31T11:08:41.738Z,230.63
2019-01-31T11:09:41.908Z,236.25
2019-01-31T11:10:42.087Z,247.50
2019-01-31T11:11:42.269Z,264.38
2019-01-31T11:12:42.440Z,281.25
2019-01-31T11:13:42.601Z,292.50
2019-01-31T11:14:42.778Z,303.75
2019-01-31T11:15:42.935Z,309.38
2019-01-31T11:16:43.101Z,320.63
2019-01-31T11:17:43.275Z,326.25
2019-01-31T11:18:43.440Z,331.88
2019-01-31T11:19:43.778Z,337.50
2019-01-31T11:20:43.929Z,343.13
2019-01-31T11:21:43.958Z,343.13
2019-01-31T11:22:44.222Z,343.13
2019-01-31T11:23:44.286Z,343.13
2019-01-31T11:24:44.436Z,337.50
2019-01-31T11:25:44.577Z,331.88
2019-01-31T11:26:44.749Z,331.88
2019-01-31T11:27:44.923Z,331.88
2019-01-31T11:28:45.094Z,331.88
2019-01-31T11:29:45.349Z,331.88
2019-01-31T11:30:45.430Z,331.88
2019-01-31T11:31:45.693Z,337.50
2019-01-31T11:32:46.097Z,348.75
2019-01-31T11:33:46.067Z,354.38
2019-01-31T11:34:46.296Z,360.00
2019-01-31T11:35:48.828Z,365.63
2019-01-31T11:36:46.880Z,371.25
2019-01-31T11:37:46.771Z,382.50
2019-01-31T11:38:47.527Z,399.38
2019-01-31T11:39:47.175Z,410.63
2019-01-31T11:40:47.771Z,427.50
2019-01-31T11:41:47.249Z,438.75
2019-01-31T11:42:47.448Z,455.63
2019-01-31T11:43:47.591Z,427.50
2019-01-31T11:44:47.757Z,433.13
2019-01-31T11:45:48.523Z,478.13
2019-01-31T11:46:48.078Z,596.25
2019-01-31T11:47:48.195Z,669.38
2019-01-31T11:48:48.440Z,579.38
2019-01-31T11:49:49.962Z,624.38
2019-01-31T11:50:48.731Z,641.25
2019-01-31T11:51:48.901Z,545.63
2019-01-31T11:52:49.059Z,523.13
2019-01-31T11:53:49.190Z,489.38
2019-01-31T11:54:49.380Z,455.63
2019-01-31T11:55:49.546Z,343.13
2019-01-31T11:56:49.718Z,326.25
2019-01-31T11:57:49.879Z,337.50
2019-01-31T11:58:50.054Z,337.50
2019-01-31T11:59:50.226Z,320.63
2019-01-31T12:00:53.043Z,320.63
2019-01-31T12:01:50.586Z,376.88
2019-01-31T12:02:55.077Z,393.75
2019-01-31T12:03:50.931Z,309.38
2019-01-31T12:04:51.109Z,281.25
2019-01-31T12:05:51.328Z,275.63
2019-01-31T12:06:51.455Z,270.00
2019-01-31T12:07:51.627Z,264.38
2019-01-31T12:08:51.808Z,264.38
2019-01-31T12:09:51.975Z,281.25
2019-01-31T12:10:52.205Z,286.88
2019-01-31T12:11:52.518Z,286.88
2019-01-31T12:12:52.449Z,371.25
2019-01-31T12:13:52.960Z,421.88
2019-01-31T12:14:53.419Z,331.88
2019-01-31T12:15:53.998Z,388.13
2019-01-31T12:16:53.207Z,427.50
2019-01-31T12:17:53.369Z,348.75
2019-01-31T12:18:53.542Z,354.38
2019-01-31T12:19:53.705Z,326.25
2019-01-31T12:20:53.990Z,253.13
2019-01-31T12:21:54.111Z,225.00
2019-01-31T12:22:54.326Z,241.88
2019-01-31T12:23:54.457Z,225.00
2019-01-31T12:24:54.597Z,208.13
2019-01-31T12:25:54.768Z,208.13
2019-01-31T12:26:55.020Z,208.13
2019-01-31T12:27:55.328Z,213.75
2019-01-31T12:28:55.311Z,208.13
2019-01-31T12:29:55.459Z,208.13
2019-01-31T12:30:55.654Z,213.75
2019-01-31T12:31:55.825Z,213.75
2019-01-31T12:32:55.993Z,219.38
2019-01-31T12:33:56.160Z,219.38
2019-01-31T12:34:56.401Z,213.75
2019-01-31T12:35:56.557Z,213.75
2019-01-31T12:36:56.740Z,208.13
2019-01-31T12:37:57.491Z,202.50
2019-01-31T12:38:57.168Z,202.50
2019-01-31T12:39:57.268Z,196.88
2019-01-31T12:40:57.446Z,196.88
2019-01-31T12:41:57.525Z,202.50
2019-01-31T12:42:57.746Z,202.50
2019-01-31T12:43:57.891Z,196.88
2019-01-31T12:44:58.153Z,196.88
2019-01-31T12:45:58.186Z,196.88
2019-01-31T12:46:58.371Z,202.50
2019-01-31T12:47:58.531Z,202.50
2019-01-31T12:48:58.715Z,225.00
2019-01-31T12:49:58.863Z,241.88
2019-01-31T12:50:59.029Z,236.25
2019-01-31T12:51:59.280Z,236.25
2019-01-31T12:52:59.474Z,241.88
2019-01-31T12:53:59.531Z,247.50
2019-01-31T12:54:59.676Z,247.50
2019-01-31T12:55:59.862Z,236.25
2019-01-31T12:57:00.024Z,230.63
2019-01-31T12:58:00.196Z,236.25
2019-01-31T12:59:00.373Z,241.88
2019-01-31T13:00:00.539Z,241.88
2019-01-31T13:01:00.709Z,253.13
2019-01-31T13:02:00.877Z,236.25
2019-01-31T13:03:01.052Z,258.75